Time;durP1;ratioP1;P1;durP2;ratioP2;P2;SDS_P1;SDS_P2;PMS_P1;PMS_P2;Temp;Humidity;BMP_temperature;BMP_pressure;BME280_temperature;BME280_humidity;BME280_pressure;Samples;Min_cycle;Max_cycle;Signal;HPM_P1;HPM_P2
2024/03/14 00:02:20;;;;;;;1.00;1.00;;;24.00;1.00;;;;;;2608005;54;20291;-66
2024/03/14 00:04:46;;;;;;;1.07;1.07;;;24.00;1.00;;;;;;2607887;54;20250;-67
2024/03/14 00:07:14;;;;;;;1.00;1.00;;;24.00;1.00;;;;;;2608640;54;20177;-67
2024/03/14 00:09:40;;;;;;;0.90;0.90;;;24.00;1.00;;;;;;2608896;54;20181;-68
2024/03/14 00:12:06;;;;;;;0.90;0.90;;;24.00;1.00;;;;;;2609349;54;20395;-68
2024/03/14 00:14:32;;;;;;;2.00;1.93;;;24.00;1.00;;;;;;2609123;54;21138;-68
2024/03/14 00:16:58;;;;;;;1.00;1.00;;;24.00;1.00;;;;;;2611581;47;20155;-68
2024/03/14 00:19:24;;;;;;;1.10;1.10;;;23.90;1.00;;;;;;2610074;54;20166;-68
2024/03/14 00:21:50;;;;;;;1.20;1.20;;;23.90;1.00;;;;;;2609871;54;20155;-69
2024/03/14 00:24:16;;;;;;;1.00;1.00;;;23.90;1.00;;;;;;2610917;54;20543;-68
2024/03/14 00:26:42;;;;;;;0.93;0.93;;;23.90;1.00;;;;;;2608645;54;20167;-68
2024/03/14 00:29:08;;;;;;;1.30;1.30;;;23.90;1.00;;;;;;2608943;39;20852;-68
2024/03/14 00:31:40;;;;;;;1.00;1.00;;;23.90;1.00;;;;;;2607947;47;20167;-66
2024/03/14 00:34:07;;;;;;;1.20;1.20;;;23.90;1.00;;;;;;2608483;54;20166;-68
2024/03/14 00:36:39;;;;;;;0.97;0.97;;;23.80;1.00;;;;;;2609556;54;20396;-68
2024/03/14 00:39:06;;;;;;;1.07;1.07;;;23.80;1.00;;;;;;2607928;54;20438;-72
2024/03/14 00:41:33;;;;;;;1.20;1.20;;;23.90;1.00;;;;;;2609579;39;20776;-63
2024/03/14 00:44:01;;;;;;;1.00;1.00;;;23.80;1.00;;;;;;2609185;54;20403;-63
2024/03/14 00:46:27;;;;;;;1.00;1.00;;;23.80;1.00;;;;;;2608910;47;20423;-64
2024/03/14 00:48:53;;;;;;;1.00;1.00;;;23.80;1.00;;;;;;2608831;54;20419;-63
2024/03/14 00:51:19;;;;;;;1.00;1.00;;;23.80;1.00;;;;;;2609067;54;20934;-64
2024/03/14 00:53:45;;;;;;;1.00;1.00;;;23.80;1.00;;;;;;2608329;54;20194;-63
2024/03/14 00:56:13;;;;;;;1.10;1.10;;;23.80;1.00;;;;;;2607211;54;20530;-64
2024/03/14 00:58:39;;;;;;;1.13;1.13;;;23.80;1.00;;;;;;2606452;54;20463;-64
2024/03/14 01:01:05;;;;;;;1.00;1.00;;;23.80;1.00;;;;;;2608090;39;21303;-72
2024/03/14 01:03:33;;;;;;;1.07;1.07;;;23.80;1.00;;;;;;2609408;54;20163;-71
2024/03/14 01:05:59;;;;;;;1.10;1.10;;;23.80;1.00;;;;;;2607066;54;20198;-71
2024/03/14 01:08:26;;;;;;;1.40;1.30;;;23.80;1.00;;;;;;2607993;54;20419;-72
2024/03/14 01:10:52;;;;;;;1.10;1.10;;;23.80;1.00;;;;;;2607037;54;20173;-63
2024/03/14 01:13:19;;;;;;;0.90;0.90;;;23.80;1.00;;;;;;2607417;54;20419;-62
2024/03/14 01:15:45;;;;;;;0.97;0.97;;;23.80;1.00;;;;;;2609082;54;20155;-63
2024/03/14 01:18:10;;;;;;;1.10;1.10;;;23.90;1.00;;;;;;2609396;54;20519;-63
2024/03/14 01:20:38;;;;;;;1.10;1.10;;;23.80;1.00;;;;;;2609910;54;20534;-63
2024/03/14 01:23:07;;;;;;;1.00;1.00;;;23.80;1.00;;;;;;2607558;54;20258;-63
2024/03/14 01:25:37;;;;;;;1.07;1.07;;;23.80;1.00;;;;;;2608916;54;20420;-63
2024/03/14 01:28:02;;;;;;;1.03;1.03;;;23.80;1.00;;;;;;2609342;54;20408;-63
2024/03/14 01:30:28;;;;;;;1.00;1.00;;;23.80;1.00;;;;;;2608562;54;21033;-61
2024/03/14 01:32:54;;;;;;;1.00;1.00;;;23.80;1.00;;;;;;2609727;52;20167;-64
2024/03/14 01:35:19;;;;;;;1.00;1.00;;;23.80;1.00;;;;;;2611577;54;20170;-64
2024/03/14 01:37:45;;;;;;;1.00;1.00;;;23.80;1.00;;;;;;2610530;54;20147;-64
2024/03/14 01:40:14;;;;;;;1.10;1.10;;;23.80;1.00;;;;;;2611218;54;20170;-64
2024/03/14 01:42:49;;;;;;;1.10;1.10;;;23.80;1.00;;;;;;2610898;54;20175;-64
2024/03/14 01:45:14;;;;;;;1.17;1.17;;;23.80;1.00;;;;;;2609697;54;20411;-63
2024/03/14 01:47:43;;;;;;;1.00;1.00;;;23.80;1.00;;;;;;2610538;31;20867;-63
2024/03/14 01:50:11;;;;;;;1.20;1.20;;;23.70;1.00;;;;;;2610299;54;20204;-69
2024/03/14 01:52:37;;;;;;;1.00;1.00;;;23.80;1.00;;;;;;2610527;54;20949;-69
2024/03/14 01:55:04;;;;;;;0.97;0.97;;;23.70;1.00;;;;;;2611107;47;20415;-69
2024/03/14 01:57:34;;;;;;;0.90;0.90;;;23.70;1.00;;;;;;2611531;54;20519;-69
2024/03/14 02:00:00;;;;;;;1.00;1.00;;;23.70;1.00;;;;;;2610103;54;20411;-69
2024/03/14 02:02:26;;;;;;;1.00;1.00;;;23.70;1.00;;;;;;2608188;47;20432;-69
2024/03/14 02:05:13;;;;;;;1.00;1.00;;;23.70;1.00;;;;;;2609291;54;20406;-68
2024/03/14 02:07:39;;;;;;;1.93;1.87;;;23.70;1.00;;;;;;2608036;46;20467;-69
2024/03/14 02:10:12;;;;;;;1.00;1.00;;;23.70;1.00;;;;;;2610705;54;20423;-71
2024/03/14 02:12:38;;;;;;;1.20;1.20;;;23.70;1.00;;;;;;2610376;39;20847;-71
2024/03/14 02:15:04;;;;;;;1.00;1.00;;;23.70;1.00;;;;;;2610963;54;20510;-71
2024/03/14 02:17:30;;;;;;;1.13;1.13;;;23.70;1.00;;;;;;2610187;54;20449;-71
2024/03/14 02:19:56;;;;;;;1.00;1.00;;;23.70;1.00;;;;;;2609059;47;20426;-64
2024/03/14 02:22:22;;;;;;;1.70;1.60;;;23.70;1.00;;;;;;2609343;54;20419;-63
2024/03/14 02:24:51;;;;;;;1.37;1.30;;;23.70;1.00;;;;;;2609592;54;20171;-62
2024/03/14 02:27:17;;;;;;;1.00;1.00;;;23.70;1.00;;;;;;2609496;54;20159;-63
2024/03/14 02:29:42;;;;;;;1.00;1.00;;;23.70;1.00;;;;;;2610055;54;20999;-63
2024/03/14 02:32:09;;;;;;;1.10;1.10;;;23.70;1.00;;;;;;2609698;54;20410;-63
2024/03/14 02:34:35;;;;;;;1.00;1.00;;;23.70;1.00;;;;;;2610450;54;20254;-63
2024/03/14 02:37:01;;;;;;;1.10;1.10;;;23.70;1.00;;;;;;2611241;51;20458;-64
2024/03/14 02:39:29;;;;;;;1.00;1.00;;;23.70;1.00;;;;;;2609953;54;20537;-63
2024/03/14 02:41:55;;;;;;;1.20;1.20;;;23.70;1.00;;;;;;2610028;54;20422;-64
2024/03/14 02:44:22;;;;;;;1.10;1.10;;;23.60;1.00;;;;;;2610533;54;20428;-65
2024/03/14 02:46:50;;;;;;;0.90;0.90;;;23.60;1.00;;;;;;2609710;54;20458;-62
2024/03/14 02:49:23;;;;;;;1.10;1.10;;;23.60;1.00;;;;;;2609385;46;20438;-64
2024/03/14 02:51:49;;;;;;;1.00;1.00;;;23.60;1.00;;;;;;2609428;47;20420;-64
2024/03/14 02:54:15;;;;;;;1.10;1.10;;;23.60;1.00;;;;;;2610115;54;20469;-64
2024/03/14 02:56:49;;;;;;;1.20;1.20;;;23.60;1.00;;;;;;2607324;54;20174;-63
2024/03/14 02:59:19;;;;;;;1.00;1.00;;;23.60;1.00;;;;;;2607848;54;20426;-61
2024/03/14 03:01:45;;;;;;;1.10;1.10;;;23.60;1.00;;;;;;2608014;54;20426;-60
2024/03/14 03:04:11;;;;;;;1.07;1.07;;;23.60;1.00;;;;;;2607129;54;20432;-60
2024/03/14 03:06:44;;;;;;;1.20;1.20;;;23.60;1.00;;;;;;2609001;54;20440;-60
2024/03/14 03:09:11;;;;;;;1.20;1.20;;;23.60;1.00;;;;;;2609345;39;20654;-60
2024/03/14 03:11:37;;;;;;;1.10;1.10;;;23.60;1.00;;;;;;2609655;54;20427;-61
2024/03/14 03:14:05;;;;;;;1.10;1.10;;;23.60;1.00;;;;;;2610058;54;20420;-61
2024/03/14 03:16:31;;;;;;;1.20;1.20;;;23.50;1.00;;;;;;2609864;54;20495;-61
2024/03/14 03:18:58;;;;;;;1.13;1.13;;;23.60;1.00;;;;;;2610380;54;20391;-60
2024/03/14 03:21:24;;;;;;;1.20;1.20;;;23.60;1.00;;;;;;2610330;39;20396;-64
2024/03/14 03:23:50;;;;;;;1.10;1.10;;;23.60;1.00;;;;;;2610372;54;20440;-65
2024/03/14 03:26:16;;;;;;;1.30;1.30;;;23.60;1.00;;;;;;2610300;54;20399;-64
2024/03/14 03:28:41;;;;;;;1.10;1.10;;;23.60;1.00;;;;;;2609169;39;20613;-62
2024/03/14 03:31:08;;;;;;;1.20;1.20;;;23.60;1.00;;;;;;2609878;47;20158;-69
2024/03/14 03:33:35;;;;;;;1.20;1.20;;;23.60;1.00;;;;;;2609272;54;20171;-69
2024/03/14 03:36:04;;;;;;;1.20;1.20;;;23.60;1.00;;;;;;2610217;54;20423;-69
2024/03/14 03:38:37;;;;;;;1.07;1.07;;;23.60;1.00;;;;;;2609644;54;20483;-69
2024/03/14 03:41:03;;;;;;;1.20;1.20;;;23.60;1.00;;;;;;2610791;47;20427;-70
2024/03/14 03:43:28;;;;;;;1.00;1.00;;;23.60;1.00;;;;;;2610894;54;20971;-70
2024/03/14 03:45:57;;;;;;;1.07;1.07;;;23.60;1.00;;;;;;2610097;54;20254;-71
2024/03/14 03:48:23;;;;;;;1.07;1.07;;;23.60;1.00;;;;;;2610461;54;20162;-71
2024/03/14 03:50:49;;;;;;;1.10;1.10;;;23.60;1.00;;;;;;2610557;54;20783;-71
2024/03/14 03:53:15;;;;;;;0.93;0.93;;;23.60;1.00;;;;;;2611029;47;20458;-72
2024/03/14 03:55:42;;;;;;;1.00;1.00;;;23.60;1.00;;;;;;2610774;54;20275;-71
2024/03/14 03:58:09;;;;;;;1.10;1.10;;;23.60;1.00;;;;;;2609380;47;20214;-71
2024/03/14 04:00:46;;;;;;;1.10;1.10;;;23.70;1.00;;;;;;2609913;54;20420;-71
2024/03/14 04:03:14;;;;;;;1.20;1.20;;;23.60;1.00;;;;;;2609192;54;20400;-72
2024/03/14 04:05:45;;;;;;;1.10;1.10;;;23.60;1.00;;;;;;2609497;54;20508;-71
2024/03/14 04:08:11;;;;;;;1.10;1.10;;;23.60;1.00;;;;;;2609730;54;20509;-70
2024/03/14 04:10:38;;;;;;;1.10;1.10;;;23.60;1.00;;;;;;2611513;54;20411;-70
2024/03/14 04:13:06;;;;;;;1.13;1.13;;;23.60;1.00;;;;;;2611964;39;20597;-71
2024/03/14 04:15:33;;;;;;;0.97;0.97;;;23.60;1.00;;;;;;2610170;54;20487;-71
2024/03/14 04:18:00;;;;;;;1.07;1.07;;;23.60;1.00;;;;;;2611248;54;20403;-70
2024/03/14 04:20:27;;;;;;;1.07;1.07;;;23.60;1.00;;;;;;2610885;54;20427;-70
2024/03/14 04:22:55;;;;;;;1.10;1.10;;;23.60;1.00;;;;;;2610525;54;20415;-71
2024/03/14 04:25:21;;;;;;;1.00;1.00;;;23.60;1.00;;;;;;2611913;54;20450;-71
2024/03/14 04:27:47;;;;;;;1.10;1.10;;;23.60;1.00;;;;;;2610573;47;20411;-71
2024/03/14 04:30:17;;;;;;;1.10;1.10;;;23.60;1.00;;;;;;2611004;54;20218;-71
2024/03/14 04:32:45;;;;;;;1.30;1.30;;;23.60;1.00;;;;;;2611423;47;21019;-71
2024/03/14 04:35:11;;;;;;;1.10;1.10;;;23.60;1.00;;;;;;2611276;47;20423;-73
2024/03/14 04:37:37;;;;;;;1.20;1.20;;;23.50;1.00;;;;;;2610485;50;20411;-72
2024/03/14 04:40:13;;;;;;;1.00;1.00;;;23.60;1.00;;;;;;2609866;54;20559;-71
2024/03/14 04:42:43;;;;;;;1.00;1.00;;;23.60;1.00;;;;;;2610182;54;20434;-70
2024/03/14 04:45:09;;;;;;;1.00;1.00;;;23.60;1.00;;;;;;2611700;54;21038;-71
2024/03/14 04:47:36;;;;;;;1.10;1.10;;;23.60;1.00;;;;;;2611791;31;20906;-71
2024/03/14 04:50:03;;;;;;;1.00;1.00;;;23.60;1.00;;;;;;2610212;54;20427;-64
2024/03/14 04:52:29;;;;;;;1.07;1.07;;;23.60;1.00;;;;;;2609634;47;20407;-66
2024/03/14 04:54:55;;;;;;;0.90;0.90;;;23.50;1.00;;;;;;2609981;39;20577;-65
2024/03/14 04:57:21;;;;;;;1.00;1.00;;;23.50;1.00;;;;;;2609955;46;20197;-64
2024/03/14 04:59:48;;;;;;;1.10;1.10;;;23.50;1.00;;;;;;2608709;54;20184;-64
2024/03/14 05:02:15;;;;;;;1.10;1.10;;;23.50;1.00;;;;;;2608575;47;20478;-64
2024/03/14 05:04:40;;;;;;;1.00;1.00;;;23.50;1.00;;;;;;2609604;54;20392;-64
2024/03/14 05:07:07;;;;;;;0.80;0.80;;;23.50;1.00;;;;;;2609684;54;20417;-63
2024/03/14 05:09:33;;;;;;;0.90;0.90;;;23.50;1.00;;;;;;2610232;54;20163;-64
2024/03/14 05:11:59;;;;;;;1.07;1.07;;;23.50;1.00;;;;;;2609870;54;20407;-65
2024/03/14 05:14:25;;;;;;;0.90;0.90;;;23.50;1.00;;;;;;2608870;54;20391;-65
2024/03/14 05:16:50;;;;;;;1.00;1.00;;;23.50;1.00;;;;;;2609799;54;20431;-66
2024/03/14 05:19:20;;;;;;;1.10;1.10;;;23.50;1.00;;;;;;2609667;54;20163;-65
2024/03/14 05:21:46;;;;;;;1.10;1.10;;;23.50;1.00;;;;;;2608873;54;20720;-65
2024/03/14 05:24:12;;;;;;;1.10;1.10;;;23.50;1.00;;;;;;2610410;54;20438;-65
2024/03/14 05:26:37;;;;;;;1.10;1.10;;;23.50;1.00;;;;;;2609833;54;20388;-65
2024/03/14 05:29:03;;;;;;;1.30;1.30;;;23.50;1.00;;;;;;2610108;54;20154;-65
2024/03/14 05:31:30;;;;;;;1.20;1.20;;;23.50;1.00;;;;;;2610914;39;20625;-71
2024/03/14 05:33:56;;;;;;;1.30;1.30;;;23.50;1.00;;;;;;2609387;54;21511;-70
2024/03/14 05:36:22;;;;;;;1.00;1.00;;;23.50;1.00;;;;;;2611353;54;20395;-70
2024/03/14 05:38:48;;;;;;;1.20;1.20;;;23.50;1.00;;;;;;2610535;54;20171;-70
2024/03/14 05:41:14;;;;;;;1.17;1.17;;;23.50;1.00;;;;;;2611431;54;20471;-70
2024/03/14 05:43:44;;;;;;;1.20;1.20;;;23.50;1.00;;;;;;2611319;46;20189;-69
2024/03/14 05:46:11;;;;;;;1.20;1.20;;;23.50;1.00;;;;;;2610550;54;21009;-70
2024/03/14 05:48:36;;;;;;;1.50;1.40;;;23.50;1.00;;;;;;2611362;54;20415;-69
2024/03/14 05:51:02;;;;;;;1.20;1.20;;;23.50;1.00;;;;;;2612114;39;20683;-68
2024/03/14 05:53:31;;;;;;;1.07;1.07;;;23.50;1.00;;;;;;2612297;47;20189;-68
2024/03/14 05:55:58;;;;;;;1.00;1.00;;;23.50;1.00;;;;;;2610614;39;20748;-67
2024/03/14 05:58:25;;;;;;;1.10;1.10;;;23.50;1.00;;;;;;2611369;54;20411;-67
2024/03/14 06:00:51;;;;;;;1.00;1.00;;;23.50;1.00;;;;;;2611436;54;20430;-65
2024/03/14 06:03:17;;;;;;;1.10;1.10;;;23.50;1.00;;;;;;2611804;54;20431;-65
2024/03/14 06:05:43;;;;;;;1.20;1.20;;;23.50;1.00;;;;;;2609684;54;20476;-65
2024/03/14 06:08:08;;;;;;;1.37;1.30;;;23.50;1.00;;;;;;2612370;39;20549;-65
2024/03/14 06:10:34;;;;;;;1.00;1.00;;;23.50;1.00;;;;;;2611409;54;20170;-65
2024/03/14 06:13:00;;;;;;;1.10;1.10;;;23.60;1.00;;;;;;2612004;54;20680;-64
2024/03/14 06:15:26;;;;;;;1.10;1.10;;;23.60;1.00;;;;;;2612446;47;20167;-64
2024/03/14 06:17:52;;;;;;;1.10;1.10;;;23.50;1.00;;;;;;2611030;54;20407;-64
2024/03/14 06:20:18;;;;;;;1.30;1.30;;;23.50;1.00;;;;;;2611231;54;20728;-65
2024/03/14 06:22:44;;;;;;;1.30;1.30;;;23.50;1.00;;;;;;2611501;47;20166;-65
2024/03/14 06:25:10;;;;;;;1.20;1.20;;;23.50;1.00;;;;;;2610857;54;20524;-65
2024/03/14 06:27:41;;;;;;;1.67;1.60;;;23.60;1.00;;;;;;2612648;54;20508;-64
2024/03/14 06:30:11;;;;;;;2.00;1.90;;;23.60;1.00;;;;;;2612049;54;20427;-64
2024/03/14 06:32:38;;;;;;;2.30;2.20;;;23.60;1.00;;;;;;2613235;54;20475;-62
2024/03/14 06:35:08;;;;;;;2.30;2.20;;;23.70;1.00;;;;;;2612365;54;20396;-62
2024/03/14 06:37:34;;;;;;;2.43;2.33;;;23.80;1.00;;;;;;2612874;54;20395;-63
2024/03/14 06:40:00;;;;;;;2.23;2.13;;;23.80;1.00;;;;;;2611943;46;20431;-65
2024/03/14 06:42:26;;;;;;;2.50;2.40;;;23.80;1.00;;;;;;2612300;47;20438;-65
2024/03/14 06:44:51;;;;;;;1.93;1.83;;;23.80;1.00;;;;;;2611207;54;20720;-65
2024/03/14 06:47:20;;;;;;;1.83;1.73;;;24.00;1.00;;;;;;2608864;54;20195;-65
2024/03/14 06:49:46;;;;;;;1.80;1.70;;;24.00;1.00;;;;;;2611281;47;20275;-66
2024/03/14 06:52:12;;;;;;;1.60;1.50;;;24.00;1.00;;;;;;2612325;51;20395;-67
2024/03/14 06:54:38;;;;;;;1.80;1.70;;;24.00;1.00;;;;;;2610639;54;20202;-66
2024/03/14 06:57:09;;;;;;;1.73;1.63;;;24.00;1.00;;;;;;2612394;54;20968;-66
2024/03/14 06:59:38;;;;;;;1.80;1.70;;;24.00;1.00;;;;;;2611002;47;20298;-62
2024/03/14 07:02:04;;;;;;;1.70;1.60;;;24.00;1.00;;;;;;2610624;54;20402;-62
2024/03/14 07:04:34;;;;;;;2.00;1.90;;;24.00;1.00;;;;;;2611512;39;20815;-62
2024/03/14 07:07:01;;;;;;;2.03;1.93;;;23.90;1.00;;;;;;2611745;47;20439;-62
2024/03/14 07:09:28;;;;;;;1.80;1.70;;;23.90;1.00;;;;;;2611907;51;20412;-76
2024/03/14 07:11:54;;;;;;;1.90;1.80;;;23.90;1.00;;;;;;2612186;39;20822;-75
2024/03/14 07:14:22;;;;;;;1.60;1.50;;;24.00;1.00;;;;;;2612841;54;20475;-75
2024/03/14 07:16:49;;;;;;;1.70;1.60;;;24.00;1.00;;;;;;2612518;54;20463;-75
2024/03/14 07:19:21;;;;;;;1.80;1.70;;;24.00;1.00;;;;;;2611417;54;20474;-75
2024/03/14 07:21:49;;;;;;;1.87;1.77;;;24.00;1.00;;;;;;2612201;54;20411;-75
2024/03/14 07:24:18;;;;;;;1.90;1.80;;;24.00;1.00;;;;;;2613443;39;20693;-76
2024/03/14 07:26:44;;;;;;;2.20;2.10;;;24.00;1.00;;;;;;2611237;54;20430;-75
2024/03/14 07:29:10;;;;;;;1.80;1.70;;;24.00;1.00;;;;;;2612230;54;20419;-75
2024/03/14 07:31:36;;;;;;;1.60;1.50;;;24.00;1.00;;;;;;2612794;54;20159;-74
2024/03/14 07:34:09;;;;;;;1.40;1.40;;;24.10;1.00;;;;;;2611328;47;20411;-75
2024/03/14 07:36:38;;;;;;;1.40;1.40;;;24.10;1.00;;;;;;2613377;54;20170;-75
2024/03/14 07:39:05;;;;;;;1.60;1.50;;;24.10;1.00;;;;;;2610832;54;20487;-75
2024/03/14 07:41:31;;;;;;;1.70;1.60;;;24.10;1.00;;;;;;2612027;54;20431;-75
2024/03/14 07:43:58;;;;;;;2.00;1.90;;;24.10;1.00;;;;;;2611617;54;20435;-75
2024/03/14 07:46:24;;;;;;;2.20;2.10;;;24.10;1.00;;;;;;2611908;54;20155;-74
2024/03/14 07:48:51;;;;;;;1.77;1.67;;;24.10;1.00;;;;;;2611458;47;20439;-75
2024/03/14 07:51:16;;;;;;;1.90;1.80;;;24.10;1.00;;;;;;2610166;54;20198;-62
2024/03/14 07:53:43;;;;;;;1.70;1.60;;;24.10;1.00;;;;;;2610983;54;20554;-62
2024/03/14 07:56:12;;;;;;;1.90;1.80;;;24.10;1.00;;;;;;2610807;54;20147;-62
2024/03/14 07:58:38;;;;;;;5.73;5.20;;;24.20;1.00;;;;;;2611161;54;20392;-62
2024/03/14 08:01:09;;;;;;;2.10;2.00;;;24.10;1.00;;;;;;2611814;54;20461;-63
2024/03/14 08:03:43;;;;;;;2.00;1.90;;;24.20;1.00;;;;;;2610776;54;20403;-62
2024/03/14 08:06:10;;;;;;;1.97;1.87;;;24.20;1.00;;;;;;2611073;47;20427;-62
2024/03/14 08:08:38;;;;;;;1.90;1.80;;;24.20;1.00;;;;;;2610171;39;20864;-61
2024/03/14 08:11:03;;;;;;;1.80;1.70;;;24.20;1.00;;;;;;2611944;39;20618;-66
2024/03/14 08:13:31;;;;;;;2.00;1.90;;;24.20;1.00;;;;;;2611010;54;20431;-66
2024/03/14 08:16:08;;;;;;;1.90;1.80;;;24.20;1.00;;;;;;2611187;39;20528;-67
2024/03/14 08:18:38;;;;;;;1.90;1.80;;;24.20;1.00;;;;;;2611548;54;20439;-67
2024/03/14 08:21:07;;;;;;;2.10;2.00;;;24.30;1.00;;;;;;2609250;54;20538;-66
2024/03/14 08:23:35;;;;;;;1.80;1.70;;;24.30;1.00;;;;;;2610903;54;20987;-67
2024/03/14 08:26:01;;;;;;;2.07;1.97;;;24.30;1.00;;;;;;2609521;54;21036;-65
2024/03/14 08:28:27;;;;;;;1.90;1.80;;;24.30;1.00;;;;;;2610100;39;20734;-66
2024/03/14 08:30:53;;;;;;;2.00;1.90;;;24.30;1.00;;;;;;2610675;54;20403;-66
2024/03/14 08:33:22;;;;;;;2.13;2.03;;;24.30;1.00;;;;;;2611748;47;20163;-65
2024/03/14 08:35:49;;;;;;;2.10;2.00;;;24.30;1.00;;;;;;2612894;54;20180;-66
2024/03/14 08:38:15;;;;;;;1.90;1.80;;;24.30;1.00;;;;;;2612227;54;20427;-66
2024/03/14 08:40:41;;;;;;;1.80;1.70;;;24.30;1.00;;;;;;2611875;54;20431;-66
2024/03/14 08:43:06;;;;;;;2.17;2.07;;;24.30;1.00;;;;;;2611846;51;20599;-66
2024/03/14 08:45:35;;;;;;;2.00;1.90;;;24.40;1.00;;;;;;2611866;54;20775;-66
2024/03/14 08:48:01;;;;;;;2.17;2.07;;;24.40;1.00;;;;;;2612911;54;20151;-66
2024/03/14 08:50:27;;;;;;;1.80;1.70;;;24.40;1.00;;;;;;2610785;54;20411;-66
2024/03/14 08:52:55;;;;;;;1.87;1.77;;;24.50;1.00;;;;;;2612477;54;21044;-66
2024/03/14 08:55:23;;;;;;;2.30;2.20;;;24.50;1.00;;;;;;2611562;54;20162;-66
2024/03/14 08:57:51;;;;;;;1.73;1.63;;;24.50;1.00;;;;;;2611786;54;20410;-67
2024/03/14 09:00:17;;;;;;;2.00;1.90;;;24.50;1.00;;;;;;2612394;54;20499;-64
2024/03/14 09:02:43;;;;;;;2.00;1.90;;;24.60;1.00;;;;;;2611032;39;20745;-63
2024/03/14 09:05:14;;;;;;;1.90;1.80;;;24.60;1.00;;;;;;2612015;39;20798;-63
2024/03/14 09:07:45;;;;;;;1.80;1.70;;;24.60;1.00;;;;;;2612332;39;20835;-63
2024/03/14 09:10:23;;;;;;;2.10;2.00;;;24.60;1.00;;;;;;2612710;54;20416;-64
2024/03/14 09:12:49;;;;;;;1.80;1.70;;;24.70;1.00;;;;;;2612729;39;22291;-63
2024/03/14 09:15:15;;;;;;;2.20;2.10;;;24.70;1.00;;;;;;2611944;54;20400;-63
2024/03/14 09:17:41;;;;;;;1.97;1.87;;;24.70;1.00;;;;;;2611972;54;21060;-63
2024/03/14 09:20:14;;;;;;;2.30;2.20;;;24.70;1.00;;;;;;2613117;54;20427;-69
2024/03/14 09:22:43;;;;;;;2.07;1.97;;;24.70;1.00;;;;;;2611570;46;20715;-69
2024/03/14 09:25:10;;;;;;;1.97;1.87;;;24.70;1.00;;;;;;2613416;54;20411;-68
2024/03/14 09:27:36;;;;;;;2.00;1.90;;;24.70;1.00;;;;;;2613197;47;20408;-68
2024/03/14 09:30:08;;;;;;;2.20;2.10;;;24.70;1.00;;;;;;2612331;54;20391;-66
2024/03/14 09:32:35;;;;;;;2.10;2.00;;;24.70;1.00;;;;;;2612493;54;20527;-66
2024/03/14 09:35:05;;;;;;;2.30;2.20;;;24.70;1.00;;;;;;2611371;47;20945;-67
2024/03/14 09:37:31;;;;;;;2.10;2.00;;;24.80;1.00;;;;;;2610936;54;20411;-67
2024/03/14 09:40:01;;;;;;;2.50;2.40;;;24.80;1.00;;;;;;2612369;54;20392;-67
2024/03/14 09:42:27;;;;;;;2.80;2.70;;;24.80;1.00;;;;;;2612020;54;20416;-66
2024/03/14 09:44:54;;;;;;;2.80;2.70;;;24.70;1.00;;;;;;2612719;51;20468;-66
2024/03/14 09:47:27;;;;;;;2.40;2.30;;;24.30;1.00;;;;;;2612064;31;20909;-66
2024/03/14 09:49:54;;;;;;;2.50;2.40;;;24.00;1.00;;;;;;2611435;54;20434;-67
2024/03/14 09:52:20;;;;;;;2.17;2.07;;;23.80;1.00;;;;;;2612321;54;20422;-67
2024/03/14 09:54:51;;;;;;;2.10;2.00;;;23.60;1.00;;;;;;2612449;54;21324;-66
2024/03/14 09:57:16;;;;;;;2.37;2.27;;;23.40;1.00;;;;;;2612433;39;20940;-66
2024/03/14 09:59:42;;;;;;;2.30;2.20;;;23.30;1.00;;;;;;2611427;54;20431;-66
2024/03/14 10:02:17;;;;;;;2.33;2.23;;;23.20;1.00;;;;;;2610966;54;20186;-66
2024/03/14 10:04:43;;;;;;;2.20;2.10;;;23.10;1.00;;;;;;2611418;54;20206;-66
2024/03/14 10:07:12;;;;;;;2.50;2.40;;;22.90;1.00;;;;;;2612498;54;20510;-66
2024/03/14 10:09:38;;;;;;;2.40;2.30;;;22.80;1.00;;;;;;2611104;54;20470;-65
2024/03/14 10:12:09;;;;;;;2.20;2.10;;;22.80;1.00;;;;;;2613040;39;21029;-65
2024/03/14 10:14:36;;;;;;;2.40;2.30;;;22.90;1.00;;;;;;2612145;54;20528;-66
2024/03/14 10:17:02;;;;;;;2.20;2.10;;;23.10;1.00;;;;;;2611787;47;20427;-66
2024/03/14 10:19:33;;;;;;;2.13;2.03;;;23.50;1.00;;;;;;2610516;54;20392;-66
2024/03/14 10:22:01;;;;;;;2.20;2.10;;;23.80;1.00;;;;;;2612187;39;20562;-66
2024/03/14 10:24:29;;;;;;;2.10;2.00;;;24.00;1.00;;;;;;2612138;54;20387;-66
2024/03/14 10:26:58;;;;;;;2.23;2.13;;;24.10;1.00;;;;;;2612419;39;20808;-67
2024/03/14 10:29:29;;;;;;;2.50;2.40;;;24.30;1.00;;;;;;2612423;54;20481;-68
2024/03/14 10:31:56;;;;;;;2.17;2.07;;;24.30;1.00;;;;;;2612521;39;20786;-66
2024/03/14 10:34:23;;;;;;;1.93;1.83;;;24.40;1.00;;;;;;2612692;54;20427;-67
2024/03/14 10:36:53;;;;;;;2.00;1.90;;;24.50;1.00;;;;;;2611257;54;20423;-67
2024/03/14 10:39:21;;;;;;;1.80;1.70;;;24.50;1.00;;;;;;2612185;54;20423;-66
2024/03/14 10:41:48;;;;;;;2.00;1.90;;;24.50;1.00;;;;;;2612386;54;20407;-68
2024/03/14 10:44:18;;;;;;;2.20;2.10;;;24.50;1.00;;;;;;2612536;54;20382;-67
2024/03/14 10:46:50;;;;;;;2.30;2.20;;;24.50;1.00;;;;;;2612819;54;20391;-68
2024/03/14 10:49:20;;;;;;;2.00;1.90;;;24.60;1.00;;;;;;2612099;54;20431;-67
2024/03/14 10:51:49;;;;;;;2.00;1.90;;;24.60;1.00;;;;;;2612092;54;20416;-67
2024/03/14 10:54:23;;;;;;;2.20;2.10;;;24.60;1.00;;;;;;2611347;54;20907;-67
2024/03/14 10:56:50;;;;;;;2.03;1.93;;;24.80;1.00;;;;;;2611678;54;20415;-67
2024/03/14 10:59:16;;;;;;;2.10;2.00;;;24.90;1.00;;;;;;2609755;54;20496;-67
2024/03/14 11:01:54;;;;;;;2.13;2.03;;;24.80;1.00;;;;;;2612357;39;21031;-68
2024/03/14 11:04:26;;;;;;;2.00;1.90;;;24.80;1.00;;;;;;2610379;54;20423;-67
2024/03/14 11:06:57;;;;;;;2.30;2.20;;;24.70;1.00;;;;;;2613219;54;20443;-68
2024/03/14 11:09:25;;;;;;;2.20;2.10;;;24.70;1.00;;;;;;2612792;54;20419;-68
2024/03/14 11:11:55;;;;;;;1.90;1.80;;;24.80;1.00;;;;;;2612193;39;20901;-67
2024/03/14 11:14:36;;;;;;;1.80;1.70;;;24.70;1.00;;;;;;2612124;47;20391;-68
2024/03/14 11:17:03;;;;;;;2.00;1.90;;;24.80;1.00;;;;;;2612879;54;20391;-67
2024/03/14 11:19:30;;;;;;;1.83;1.73;;;24.80;1.00;;;;;;2611819;47;20476;-70
2024/03/14 11:21:58;;;;;;;1.80;1.70;;;24.90;1.00;;;;;;2612150;54;20422;-69
2024/03/14 11:24:30;;;;;;;2.03;1.93;;;24.90;1.00;;;;;;2613076;54;20391;-69
2024/03/14 11:27:01;;;;;;;2.20;2.10;;;24.90;1.00;;;;;;2612255;54;20559;-69
2024/03/14 11:29:28;;;;;;;2.00;1.90;;;24.80;1.00;;;;;;2613242;47;20432;-69
2024/03/14 11:32:31;;;;;;;2.00;1.90;;;24.80;1.00;;;;;;2612861;31;20855;-69
2024/03/14 11:35:40;;;;;;;1.80;1.70;;;24.70;1.00;;;;;;2611638;54;20431;-69
2024/03/14 11:38:20;;;;;;;2.00;1.90;;;24.70;1.00;;;;;;2612667;39;20759;-69
2024/03/14 11:40:55;;;;;;;2.30;2.20;;;24.70;1.00;;;;;;2612100;47;20797;-66
2024/03/14 11:43:25;;;;;;;2.17;2.07;;;24.70;1.00;;;;;;2612399;54;20418;-67
2024/03/14 11:45:54;;;;;;;2.00;1.90;;;24.80;1.00;;;;;;2611542;54;20519;-66
2024/03/14 11:48:23;;;;;;;2.30;2.20;;;24.70;1.00;;;;;;2611597;54;20399;-66
2024/03/14 11:50:53;;;;;;;2.20;2.10;;;24.80;1.00;;;;;;2611353;54;20392;-68
2024/03/14 11:53:22;;;;;;;2.20;2.10;;;24.90;1.00;;;;;;2612941;54;20486;-68
2024/03/14 11:55:49;;;;;;;2.20;2.10;;;25.10;1.00;;;;;;2612661;54;20961;-67
2024/03/14 11:58:16;;;;;;;1.93;1.83;;;25.20;1.00;;;;;;2612449;54;20514;-68
2024/03/14 12:00:42;;;;;;;2.33;2.23;;;25.30;1.00;;;;;;2611382;39;20897;-67
2024/03/14 12:03:18;;;;;;;2.20;2.10;;;25.20;1.00;;;;;;2610236;54;20479;-68
2024/03/14 12:05:52;;;;;;;2.30;2.20;;;25.10;1.00;;;;;;2611734;54;20388;-67
2024/03/14 12:08:18;;;;;;;2.20;2.10;;;24.90;1.00;;;;;;2612507;54;20441;-67
2024/03/14 12:10:54;;;;;;;2.40;2.30;;;24.90;1.00;;;;;;2613240;54;20434;-67
2024/03/14 12:13:23;;;;;;;2.37;2.27;;;24.80;1.00;;;;;;2612400;54;20967;-67
2024/03/14 12:16:01;;;;;;;2.10;2.00;;;24.80;1.00;;;;;;2612926;47;20510;-67
2024/03/14 12:18:27;;;;;;;2.10;2.00;;;24.80;1.00;;;;;;2612072;54;20423;-67
2024/03/14 12:20:56;;;;;;;2.30;2.20;;;24.80;1.00;;;;;;2612922;47;20425;-67
2024/03/14 12:23:24;;;;;;;2.10;2.00;;;24.80;1.00;;;;;;2612984;54;20175;-67
2024/03/14 12:25:51;;;;;;;2.20;2.10;;;24.80;1.00;;;;;;2612807;47;20406;-68
2024/03/14 12:28:19;;;;;;;2.33;2.23;;;24.80;1.00;;;;;;2613067;47;20435;-67
2024/03/14 12:30:56;;;;;;;2.03;1.93;;;24.80;1.00;;;;;;2612688;54;20424;-66
2024/03/14 12:33:22;;;;;;;1.90;1.80;;;24.80;1.00;;;;;;2613133;54;21054;-65
2024/03/14 12:35:49;;;;;;;2.30;2.20;;;24.80;1.00;;;;;;2610880;54;20446;-64
2024/03/14 12:38:18;;;;;;;2.10;2.00;;;24.90;1.00;;;;;;2610724;54;20439;-67
2024/03/14 12:40:49;;;;;;;1.87;1.77;;;24.90;1.00;;;;;;2611432;47;20442;-65
2024/03/14 12:43:15;;;;;;;2.00;1.90;;;25.00;1.00;;;;;;2612743;54;20988;-65
2024/03/14 12:45:44;;;;;;;2.20;2.10;;;25.00;1.00;;;;;;2611365;54;20415;-66
2024/03/14 12:48:11;;;;;;;2.10;2.00;;;24.90;1.00;;;;;;2612813;54;20426;-65
2024/03/14 12:50:36;;;;;;;1.80;1.70;;;24.90;1.00;;;;;;2612925;54;20447;-66
2024/03/14 12:53:05;;;;;;;1.97;1.87;;;24.90;1.00;;;;;;2612972;54;20471;-66
2024/03/14 12:55:32;;;;;;;2.10;2.00;;;25.00;1.00;;;;;;2612543;54;20700;-65
2024/03/14 12:58:00;;;;;;;2.27;2.17;;;25.00;1.00;;;;;;2612690;54;20980;-65
2024/03/14 13:00:31;;;;;;;2.10;2.00;;;24.90;1.00;;;;;;2612448;54;20404;-70
2024/03/14 13:02:57;;;;;;;2.13;2.03;;;24.90;1.00;;;;;;2612648;54;20471;-71